sensor_id;sensor_type;location;lat;lon;timestamp;pressure;altitude;pressure_sealevel;temperature;humidity
26043;BME280;13818;52.156;5.382;2023-04-10T00:01:11;101819.44;;;9.72;100.00
26043;BME280;13818;52.156;5.382;2023-04-10T00:03:38;101811.50;;;9.71;100.00
26043;BME280;13818;52.156;5.382;2023-04-10T00:06:07;101806.31;;;9.66;100.00
26043;BME280;13818;52.156;5.382;2023-04-10T00:08:33;101801.88;;;9.65;100.00
26043;BME280;13818;52.156;5.382;2023-04-10T00:11:00;101805.38;;;9.67;100.00
26043;BME280;13818;52.156;5.382;2023-04-10T00:13:27;101801.03;;;9.65;100.00
26043;BME280;13818;52.156;5.382;2023-04-10T00:15:53;101791.34;;;9.60;100.00
26043;BME280;13818;52.156;5.382;2023-04-10T00:18:20;101796.69;;;9.60;100.00
26043;BME280;13818;52.156;5.382;2023-04-10T00:20:46;101793.16;;;9.60;100.00
26043;BME280;13818;52.156;5.382;2023-04-10T00:23:14;101791.44;;;9.57;100.00
26043;BME280;13818;52.156;5.382;2023-04-10T00:25:41;101784.38;;;9.56;100.00
26043;BME280;13818;52.156;5.382;2023-04-10T00:28:08;101771.19;;;9.52;100.00
26043;BME280;13818;52.156;5.382;2023-04-10T00:30:34;101775.69;;;9.50;100.00
26043;BME280;13818;52.156;5.382;2023-04-10T00:33:01;101768.56;;;9.50;100.00
26043;BME280;13818;52.156;5.382;2023-04-10T00:35:28;101757.06;;;9.50;100.00
26043;BME280;13818;52.156;5.382;2023-04-10T00:37:54;101752.75;;;9.44;100.00
26043;BME280;13818;52.156;5.382;2023-04-10T00:40:24;101752.75;;;9.44;100.00
26043;BME280;13818;52.156;5.382;2023-04-10T00:42:50;101751.16;;;9.38;100.00
26043;BME280;13818;52.156;5.382;2023-04-10T00:45:17;101747.59;;;9.38;100.00
26043;BME280;13818;52.156;5.382;2023-04-10T00:47:44;101748.53;;;9.37;100.00
26043;BME280;13818;52.156;5.382;2023-04-10T00:50:11;101740.56;;;9.35;100.00
26043;BME280;13818;52.156;5.382;2023-04-10T00:52:38;101743.22;;;9.35;100.00
26043;BME280;13818;52.156;5.382;2023-04-10T00:55:05;101753.00;;;9.35;100.00
26043;BME280;13818;52.156;5.382;2023-04-10T00:57:34;101749.50;;;9.33;100.00
26043;BME280;13818;52.156;5.382;2023-04-10T01:00:01;101742.38;;;9.35;100.00
26043;BME280;13818;52.156;5.382;2023-04-10T01:02:29;101732.63;;;9.34;100.00
26043;BME280;13818;52.156;5.382;2023-04-10T01:04:56;101734.47;;;9.32;100.00
26043;BME280;13818;52.156;5.382;2023-04-10T01:07:31;101734.50;;;9.30;100.00
26043;BME280;13818;52.156;5.382;2023-04-10T01:10:12;101735.41;;;9.29;100.00
26043;BME280;13818;52.156;5.382;2023-04-10T01:12:51;101735.41;;;9.29;100.00
26043;BME280;13818;52.156;5.382;2023-04-10T01:15:21;101738.06;;;9.29;100.00
26043;BME280;13818;52.156;5.382;2023-04-10T01:17:51;101726.63;;;9.27;100.00
26043;BME280;13818;52.156;5.382;2023-04-10T01:20:22;101730.13;;;9.27;100.00
26043;BME280;13818;52.156;5.382;2023-04-10T01:23:08;101712.41;;;9.28;100.00
26043;BME280;13818;52.156;5.382;2023-04-10T01:25:40;101716.84;;;9.27;100.00
26043;BME280;13818;52.156;5.382;2023-04-10T01:31:07;101711.41;;;9.32;100.00
26043;BME280;13818;52.156;5.382;2023-04-10T01:33:39;101703.41;;;9.32;100.00
26043;BME280;13818;52.156;5.382;2023-04-10T01:36:08;101709.69;;;9.30;100.00
26043;BME280;13818;52.156;5.382;2023-04-10T01:38:39;101707.00;;;9.31;100.00
26043;BME280;13818;52.156;5.382;2023-04-10T01:41:07;101696.50;;;9.25;100.00
26043;BME280;13818;52.156;5.382;2023-04-10T01:43:35;101696.56;;;9.23;100.00
26043;BME280;13818;52.156;5.382;2023-04-10T01:46:05;101691.13;;;9.28;100.00
26043;BME280;13818;52.156;5.382;2023-04-10T01:48:32;101700.06;;;9.25;100.00
26043;BME280;13818;52.156;5.382;2023-04-10T01:51:01;101693.91;;;9.23;100.00
26043;BME280;13818;52.156;5.382;2023-04-10T01:53:30;101696.50;;;9.25;100.00
26043;BME280;13818;52.156;5.382;2023-04-10T01:55:57;101690.22;;;9.27;100.00
26043;BME280;13818;52.156;5.382;2023-04-10T01:58:24;101685.81;;;9.26;100.00
26043;BME280;13818;52.156;5.382;2023-04-10T02:00:52;101688.53;;;9.25;100.00
26043;BME280;13818;52.156;5.382;2023-04-10T02:03:20;101684.06;;;9.27;100.00
26043;BME280;13818;52.156;5.382;2023-04-10T02:05:56;101685.81;;;9.26;100.00
26043;BME280;13818;52.156;5.382;2023-04-10T02:08:31;101682.31;;;9.26;100.00
26043;BME280;13818;52.156;5.382;2023-04-10T02:11:05;101677.84;;;9.26;100.00
26043;BME280;13818;52.156;5.382;2023-04-10T02:13:37;101676.06;;;9.27;100.00
26043;BME280;13818;52.156;5.382;2023-04-10T02:16:06;101674.31;;;9.26;100.00
26043;BME280;13818;52.156;5.382;2023-04-10T02:18:35;101678.78;;;9.25;100.00
26043;BME280;13818;52.156;5.382;2023-04-10T02:21:03;101684.91;;;9.27;100.00
26043;BME280;13818;52.156;5.382;2023-04-10T02:23:30;101679.69;;;9.24;100.00
26043;BME280;13818;52.156;5.382;2023-04-10T02:26:05;101677.84;;;9.26;100.00
26043;BME280;13818;52.156;5.382;2023-04-10T02:28:31;101674.28;;;9.27;100.00
26043;BME280;13818;52.156;5.382;2023-04-10T02:30:58;101674.38;;;9.24;100.00
26043;BME280;13818;52.156;5.382;2023-04-10T02:33:24;101669.84;;;9.28;100.00
26043;BME280;13818;52.156;5.382;2023-04-10T02:35:53;101669.00;;;9.26;100.00
26043;BME280;13818;52.156;5.382;2023-04-10T02:38:19;101663.56;;;9.29;100.00
26043;BME280;13818;52.156;5.382;2023-04-10T02:40:46;101676.03;;;9.28;100.00
26043;BME280;13818;52.156;5.382;2023-04-10T02:43:14;101676.13;;;9.25;100.00
26043;BME280;13818;52.156;5.382;2023-04-10T02:45:41;101669.16;;;9.20;100.00
26043;BME280;13818;52.156;5.382;2023-04-10T02:48:08;101665.72;;;9.16;100.00
26043;BME280;13818;52.156;5.382;2023-04-10T02:50:35;101665.72;;;9.16;100.00
26043;BME280;13818;52.156;5.382;2023-04-10T02:53:04;101664.91;;;9.14;100.00
26043;BME280;13818;52.156;5.382;2023-04-10T02:55:32;101663.16;;;9.13;100.00
26043;BME280;13818;52.156;5.382;2023-04-10T02:57:58;101670.22;;;9.12;100.00
26043;BME280;13818;52.156;5.382;2023-04-10T03:00:25;101666.75;;;9.10;100.00
26043;BME280;13818;52.156;5.382;2023-04-10T03:02:52;101677.34;;;9.12;100.00
26043;BME280;13818;52.156;5.382;2023-04-10T03:05:19;101682.63;;;9.14;100.00
26043;BME280;13818;52.156;5.382;2023-04-10T03:07:45;101679.09;;;9.13;100.00
26043;BME280;13818;52.156;5.382;2023-04-10T03:10:14;101687.19;;;9.08;100.00
26043;BME280;13818;52.156;5.382;2023-04-10T03:12:40;101682.78;;;9.07;100.00
26043;BME280;13818;52.156;5.382;2023-04-10T03:15:07;101672.19;;;9.06;100.00
26043;BME280;13818;52.156;5.382;2023-04-10T03:17:34;101667.72;;;9.08;100.00
26043;BME280;13818;52.156;5.382;2023-04-10T03:20:01;101665.88;;;9.10;100.00
26043;BME280;13818;52.156;5.382;2023-04-10T03:22:28;101667.72;;;9.06;100.00
26043;BME280;13818;52.156;5.382;2023-04-10T03:24:56;101666.03;;;9.04;100.00
26043;BME280;13818;52.156;5.382;2023-04-10T03:27:27;101672.28;;;9.03;100.00
26043;BME280;13818;52.156;5.382;2023-04-10T03:29:56;101666.00;;;9.05;100.00
26043;BME280;13818;52.156;5.382;2023-04-10T03:32:23;101659.81;;;9.05;100.00
26043;BME280;13818;52.156;5.382;2023-04-10T03:34:52;101660.00;;;8.97;100.00
26043;BME280;13818;52.156;5.382;2023-04-10T03:37:18;101661.88;;;8.93;100.00
26043;BME280;13818;52.156;5.382;2023-04-10T03:39:45;101651.28;;;8.92;100.00
26043;BME280;13818;52.156;5.382;2023-04-10T03:42:12;101656.59;;;8.92;100.00
26043;BME280;13818;52.156;5.382;2023-04-10T03:44:40;101654.94;;;8.88;100.00
26043;BME280;13818;52.156;5.382;2023-04-10T03:47:06;101646.13;;;8.86;100.00
26043;BME280;13818;52.156;5.382;2023-04-10T03:49:33;101647.03;;;8.85;100.00
26043;BME280;13818;52.156;5.382;2023-04-10T03:52:00;101644.41;;;8.83;100.00
26043;BME280;13818;52.156;5.382;2023-04-10T03:54:26;101640.06;;;8.81;100.00
26043;BME280;13818;52.156;5.382;2023-04-10T03:56:53;101639.22;;;8.78;100.00
26043;BME280;13818;52.156;5.382;2023-04-10T03:59:20;101648.09;;;8.79;100.00
26043;BME280;13818;52.156;5.382;2023-04-10T04:01:48;101642.81;;;8.76;100.00
26043;BME280;13818;52.156;5.382;2023-04-10T04:04:17;101625.22;;;8.72;100.00
26043;BME280;13818;52.156;5.382;2023-04-10T04:06:43;101620.84;;;8.69;100.00
26043;BME280;13818;52.156;5.382;2023-04-10T04:09:10;101626.22;;;8.68;100.00
26043;BME280;13818;52.156;5.382;2023-04-10T04:11:37;101617.34;;;8.67;100.00
26043;BME280;13818;52.156;5.382;2023-04-10T04:14:03;101621.00;;;8.63;100.00
26043;BME280;13818;52.156;5.382;2023-04-10T04:16:30;101612.13;;;8.64;100.00
26043;BME280;13818;52.156;5.382;2023-04-10T04:18:58;101611.25;;;8.63;100.00
26043;BME280;13818;52.156;5.382;2023-04-10T04:21:25;101613.00;;;8.65;100.00
26043;BME280;13818;52.156;5.382;2023-04-10T04:23:51;101621.91;;;8.62;100.00
26043;BME280;13818;52.156;5.382;2023-04-10T04:26:19;101624.72;;;8.57;100.00
26043;BME280;13818;52.156;5.382;2023-04-10T04:28:46;101622.06;;;8.57;100.00
26043;BME280;13818;52.156;5.382;2023-04-10T04:31:13;101622.06;;;8.57;100.00
26043;BME280;13818;52.156;5.382;2023-04-10T04:33:40;101622.06;;;8.57;100.00
26043;BME280;13818;52.156;5.382;2023-04-10T04:36:08;101615.84;;;8.57;100.00
26043;BME280;13818;52.156;5.382;2023-04-10T04:38:35;101610.63;;;8.54;100.00
26043;BME280;13818;52.156;5.382;2023-04-10T04:41:01;101610.63;;;8.54;100.00
26043;BME280;13818;52.156;5.382;2023-04-10T04:43:28;101604.50;;;8.50;100.00
26043;BME280;13818;52.156;5.382;2023-04-10T04:45:55;101611.66;;;8.48;100.00
26043;BME280;13818;52.156;5.382;2023-04-10T04:48:22;101595.75;;;8.46;100.00
26043;BME280;13818;52.156;5.382;2023-04-10T04:50:49;101601.94;;;8.45;100.00
26043;BME280;13818;52.156;5.382;2023-04-10T04:53:17;101590.44;;;8.45;100.00
26043;BME280;13818;52.156;5.382;2023-04-10T04:55:43;101593.25;;;8.39;100.00
26043;BME280;13818;52.156;5.382;2023-04-10T04:58:10;101605.63;;;8.40;100.00
26043;BME280;13818;52.156;5.382;2023-04-10T05:00:37;101608.31;;;8.38;100.00
26043;BME280;13818;52.156;5.382;2023-04-10T05:03:03;101607.50;;;8.36;100.00
26043;BME280;13818;52.156;5.382;2023-04-10T05:05:31;101603.03;;;8.37;100.00
26043;BME280;13818;52.156;5.382;2023-04-10T05:07:59;101595.06;;;8.37;100.00
26043;BME280;13818;52.156;5.382;2023-04-10T05:10:27;101600.44;;;8.35;100.00
26043;BME280;13818;52.156;5.382;2023-04-10T05:12:55;101598.66;;;8.34;100.00
26043;BME280;13818;52.156;5.382;2023-04-10T05:15:22;101589.78;;;8.35;100.00
26043;BME280;13818;52.156;5.382;2023-04-10T05:17:48;101586.19;;;8.38;100.00
26043;BME280;13818;52.156;5.382;2023-04-10T05:20:17;101593.25;;;8.39;100.00
26043;BME280;13818;52.156;5.382;2023-04-10T05:22:44;101593.94;;;8.49;100.00
26043;BME280;13818;52.156;5.382;2023-04-10T05:25:10;101600.72;;;8.60;100.00
26043;BME280;13818;52.156;5.382;2023-04-10T05:27:38;101594.13;;;8.75;100.00
26043;BME280;13818;52.156;5.382;2023-04-10T05:30:06;101598.38;;;8.81;100.00
26043;BME280;13818;52.156;5.382;2023-04-10T05:32:33;101591.47;;;8.75;100.00
26043;BME280;13818;52.156;5.382;2023-04-10T05:35:00;101592.91;;;8.87;100.00
26043;BME280;13818;52.156;5.382;2023-04-10T05:37:26;101588.31;;;8.94;100.00
26043;BME280;13818;52.156;5.382;2023-04-10T05:39:53;101578.53;;;8.94;100.00
26043;BME280;13818;52.156;5.382;2023-04-10T05:42:19;101586.41;;;8.99;100.00
26043;BME280;13818;52.156;5.382;2023-04-10T05:44:48;101592.41;;;9.06;100.00
26043;BME280;13818;52.156;5.382;2023-04-10T05:47:15;101589.53;;;9.14;100.00
26043;BME280;13818;52.156;5.382;2023-04-10T05:49:42;101587.66;;;9.17;100.00
26043;BME280;13818;52.156;5.382;2023-04-10T05:52:08;101581.09;;;9.31;100.00
26043;BME280;13818;52.156;5.382;2023-04-10T05:54:35;101583.22;;;9.48;100.00
26043;BME280;13818;52.156;5.382;2023-04-10T05:57:01;101579.91;;;9.41;100.00
26043;BME280;13818;52.156;5.382;2023-04-10T05:59:28;101575.13;;;9.52;100.00
26043;BME280;13818;52.156;5.382;2023-04-10T06:01:57;101572.34;;;9.57;100.00
26043;BME280;13818;52.156;5.382;2023-04-10T06:04:24;101577.66;;;9.57;100.00
26043;BME280;13818;52.156;5.382;2023-04-10T06:06:50;101567.91;;;9.56;100.00
26043;BME280;13818;52.156;5.382;2023-04-10T06:09:17;101573.00;;;9.64;100.00
26043;BME280;13818;52.156;5.382;2023-04-10T06:11:44;101574.59;;;9.69;100.00
26043;BME280;13818;52.156;5.382;2023-04-10T06:14:11;101568.47;;;9.67;100.00
26043;BME280;13818;52.156;5.382;2023-04-10T06:16:38;101568.47;;;9.67;100.00
26043;BME280;13818;52.156;5.382;2023-04-10T06:19:06;101560.50;;;9.66;100.00
26043;BME280;13818;52.156;5.382;2023-04-10T06:21:32;101562.97;;;9.73;100.00
26043;BME280;13818;52.156;5.382;2023-04-10T06:23:59;101549.47;;;9.78;100.00
26043;BME280;13818;52.156;5.382;2023-04-10T06:26:26;101547.66;;;9.80;100.00
26043;BME280;13818;52.156;5.382;2023-04-10T06:28:52;101546.69;;;9.83;100.00
26043;BME280;13818;52.156;5.382;2023-04-10T06:31:19;101542.03;;;9.89;100.00
26043;BME280;13818;52.156;5.382;2023-04-10T06:33:46;101537.22;;;10.01;100.00
26043;BME280;13818;52.156;5.382;2023-04-10T06:36:15;101530.72;;;10.09;100.00
26043;BME280;13818;52.156;5.382;2023-04-10T06:38:41;101535.13;;;10.10;100.00
26043;BME280;13818;52.156;5.382;2023-04-10T06:41:08;101528.81;;;10.13;100.00
26043;BME280;13818;52.156;5.382;2023-04-10T06:43:38;101525.97;;;10.19;100.00
26043;BME280;13818;52.156;5.382;2023-04-10T06:46:05;101520.78;;;10.15;100.00
26043;BME280;13818;52.156;5.382;2023-04-10T06:48:33;101517.84;;;10.22;100.00
26043;BME280;13818;52.156;5.382;2023-04-10T06:51:00;101509.56;;;10.32;100.00
26043;BME280;13818;52.156;5.382;2023-04-10T06:53:28;101503.00;;;10.42;100.00
26043;BME280;13818;52.156;5.382;2023-04-10T06:55:55;101501.13;;;10.46;100.00
26043;BME280;13818;52.156;5.382;2023-04-10T06:58:22;101499.03;;;10.54;100.00
26043;BME280;13818;52.156;5.382;2023-04-10T07:00:48;101506.81;;;10.60;100.00
26043;BME280;13818;52.156;5.382;2023-04-10T07:03:15;101487.03;;;10.67;100.00
26043;BME280;13818;52.156;5.382;2023-04-10T07:05:41;101487.63;;;10.76;100.00
26043;BME280;13818;52.156;5.382;2023-04-10T07:08:08;101483.41;;;10.94;100.00
26043;BME280;13818;52.156;5.382;2023-04-10T07:10:36;101468.00;;;11.02;100.00
26043;BME280;13818;52.156;5.382;2023-04-10T07:13:03;101469.69;;;11.03;100.00
26043;BME280;13818;52.156;5.382;2023-04-10T07:15:30;101465.41;;;11.22;100.00
26043;BME280;13818;52.156;5.382;2023-04-10T07:17:57;101450.91;;;11.30;100.00
26043;BME280;13818;52.156;5.382;2023-04-10T07:20:23;101459.13;;;11.47;100.00
26043;BME280;13818;52.156;5.382;2023-04-10T07:22:50;101459.66;;;11.55;100.00
26043;BME280;13818;52.156;5.382;2023-04-10T07:25:17;101452.00;;;11.68;100.00
26043;BME280;13818;52.156;5.382;2023-04-10T07:27:46;101450.56;;;11.82;100.00
26043;BME280;13818;52.156;5.382;2023-04-10T07:30:12;101436.78;;;11.93;100.00
26043;BME280;13818;52.156;5.382;2023-04-10T07:32:39;101436.34;;;12.24;100.00
26043;BME280;13818;52.156;5.382;2023-04-10T07:35:07;101444.28;;;12.46;100.00
26043;BME280;13818;52.156;5.382;2023-04-10T07:37:34;101429.22;;;12.64;100.00
26043;BME280;13818;52.156;5.382;2023-04-10T07:40:00;101432.13;;;12.79;100.00
26043;BME280;13818;52.156;5.382;2023-04-10T07:42:28;101432.50;;;13.09;97.79
26043;BME280;13818;52.156;5.382;2023-04-10T07:44:57;101434.81;;;13.17;96.02
26043;BME280;13818;52.156;5.382;2023-04-10T07:47:23;101430.28;;;13.38;94.72
26043;BME280;13818;52.156;5.382;2023-04-10T07:49:50;101435.66;;;13.92;92.35
26043;BME280;13818;52.156;5.382;2023-04-10T07:52:17;101430.69;;;14.02;89.60
26043;BME280;13818;52.156;5.382;2023-04-10T07:54:44;101425.25;;;14.21;88.85
26043;BME280;13818;52.156;5.382;2023-04-10T07:57:11;101419.47;;;14.29;87.72
26043;BME280;13818;52.156;5.382;2023-04-10T07:59:37;101422.47;;;14.05;87.63
26043;BME280;13818;52.156;5.382;2023-04-10T08:02:06;101414.13;;;14.11;88.25
26043;BME280;13818;52.156;5.382;2023-04-10T08:04:33;101409.00;;;13.72;89.56
26043;BME280;13818;52.156;5.382;2023-04-10T08:06:59;101408.03;;;13.36;91.53
26043;BME280;13818;52.156;5.382;2023-04-10T08:09:26;101407.16;;;13.35;93.02
26043;BME280;13818;52.156;5.382;2023-04-10T08:11:53;101401.75;;;13.37;92.14
26043;BME280;13818;52.156;5.382;2023-04-10T08:14:22;101399.44;;;13.29;93.62
26043;BME280;13818;52.156;5.382;2023-04-10T08:16:49;101394.75;;;12.96;95.48
26043;BME280;13818;52.156;5.382;2023-04-10T08:19:17;101394.16;;;12.90;96.97
26043;BME280;13818;52.156;5.382;2023-04-10T08:21:44;101397.06;;;13.04;97.10
26043;BME280;13818;52.156;5.382;2023-04-10T08:24:10;101392.94;;;13.16;96.60
26043;BME280;13818;52.156;5.382;2023-04-10T08:26:37;101399.63;;;13.44;95.51
26043;BME280;13818;52.156;5.382;2023-04-10T08:29:04;101392.28;;;13.66;93.78
26043;BME280;13818;52.156;5.382;2023-04-10T08:31:30;101400.91;;;13.91;93.47
26043;BME280;13818;52.156;5.382;2023-04-10T08:33:57;101388.88;;;13.98;92.56
26043;BME280;13818;52.156;5.382;2023-04-10T08:36:26;101371.97;;;13.97;90.84
26043;BME280;13818;52.156;5.382;2023-04-10T08:38:53;101373.91;;;14.11;90.58
26043;BME280;13818;52.156;5.382;2023-04-10T08:41:19;101368.34;;;13.98;90.14
26043;BME280;13818;52.156;5.382;2023-04-10T08:43:46;101362.03;;;13.82;91.48
26043;BME280;13818;52.156;5.382;2023-04-10T08:46:14;101370.22;;;13.79;92.20
26043;BME280;13818;52.156;5.382;2023-04-10T08:48:45;101366.38;;;13.30;93.90
26043;BME280;13818;52.156;5.382;2023-04-10T08:51:14;101366.50;;;13.27;95.76
26043;BME280;13818;52.156;5.382;2023-04-10T08:53:44;101357.22;;;13.34;96.28
26043;BME280;13818;52.156;5.382;2023-04-10T08:56:12;101350.53;;;13.26;96.48
26043;BME280;13818;52.156;5.382;2023-04-10T08:58:41;101354.00;;;13.28;97.88
26043;BME280;13818;52.156;5.382;2023-04-10T09:01:09;101360.44;;;13.43;98.58
26043;BME280;13818;52.156;5.382;2023-04-10T09:03:36;101357.69;;;13.62;97.88
26043;BME280;13818;52.156;5.382;2023-04-10T09:06:04;101361.09;;;13.65;97.76
26043;BME280;13818;52.156;5.382;2023-04-10T09:08:31;101341.88;;;13.75;97.73
26043;BME280;13818;52.156;5.382;2023-04-10T09:11:00;101345.88;;;13.48;98.40
26043;BME280;13818;52.156;5.382;2023-04-10T09:13:35;101342.88;;;13.55;98.92
26043;BME280;13818;52.156;5.382;2023-04-10T09:16:02;101339.50;;;13.51;99.57
26043;BME280;13818;52.156;5.382;2023-04-10T09:18:50;101338.47;;;13.54;100.00
26043;BME280;13818;52.156;5.382;2023-04-10T09:21:18;101318.19;;;13.30;100.00
26043;BME280;13818;52.156;5.382;2023-04-10T09:23:47;101321.53;;;13.16;100.00
26043;BME280;13818;52.156;5.382;2023-04-10T09:26:26;101327.91;;;13.14;100.00
26043;BME280;13818;52.156;5.382;2023-04-10T09:29:00;101310.06;;;12.95;100.00
26043;BME280;13818;52.156;5.382;2023-04-10T09:31:29;101310.88;;;12.97;100.00
26043;BME280;13818;52.156;5.382;2023-04-10T09:34:10;101298.88;;;13.06;100.00
26043;BME280;13818;52.156;5.382;2023-04-10T09:36:37;101301.28;;;13.11;100.00
26043;BME280;13818;52.156;5.382;2023-04-10T09:39:05;101295.34;;;13.23;100.00
26043;BME280;13818;52.156;5.382;2023-04-10T09:41:36;101296.44;;;13.19;100.00
26043;BME280;13818;52.156;5.382;2023-04-10T09:44:12;101280.53;;;13.33;100.00
26043;BME280;13818;52.156;5.382;2023-04-10T09:46:39;101274.47;;;13.30;100.00
26043;BME280;13818;52.156;5.382;2023-04-10T09:49:05;101267.63;;;13.24;100.00
26043;BME280;13818;52.156;5.382;2023-04-10T09:51:33;101261.06;;;13.30;100.00
26043;BME280;13818;52.156;5.382;2023-04-10T09:54:00;101254.38;;;13.40;100.00
26043;BME280;13818;52.156;5.382;2023-04-10T09:56:27;101254.41;;;13.56;100.00
26043;BME280;13818;52.156;5.382;2023-04-10T09:58:59;101258.59;;;13.62;100.00
26043;BME280;13818;52.156;5.382;2023-04-10T10:01:26;101249.38;;;13.67;100.00
26043;BME280;13818;52.156;5.382;2023-04-10T10:03:55;101248.00;;;13.76;100.00
26043;BME280;13818;52.156;5.382;2023-04-10T10:06:24;101252.44;;;13.77;100.00
26043;BME280;13818;52.156;5.382;2023-04-10T10:08:52;101241.63;;;13.79;100.00
26043;BME280;13818;52.156;5.382;2023-04-10T10:11:20;101237.75;;;13.85;100.00
26043;BME280;13818;52.156;5.382;2023-04-10T10:13:49;101232.94;;;13.91;99.86
26043;BME280;13818;52.156;5.382;2023-04-10T10:16:20;101236.31;;;13.95;99.72
26043;BME280;13818;52.156;5.382;2023-04-10T10:18:53;101223.16;;;13.90;100.00
26043;BME280;13818;52.156;5.382;2023-04-10T10:21:21;101228.22;;;14.12;98.62
26043;BME280;13818;52.156;5.382;2023-04-10T10:23:49;101215.41;;;14.02;98.95
26043;BME280;13818;52.156;5.382;2023-04-10T10:26:19;101213.88;;;14.29;98.60
26043;BME280;13818;52.156;5.382;2023-04-10T10:28:50;101211.38;;;14.42;97.76
26043;BME280;13818;52.156;5.382;2023-04-10T10:31:17;101192.88;;;14.38;96.08
26043;BME280;13818;52.156;5.382;2023-04-10T10:33:46;101195.34;;;14.41;95.67
26043;BME280;13818;52.156;5.382;2023-04-10T10:36:13;101207.56;;;14.46;95.82
26043;BME280;13818;52.156;5.382;2023-04-10T10:38:52;101191.03;;;14.54;95.96
26043;BME280;13818;52.156;5.382;2023-04-10T10:41:28;101182.38;;;14.49;94.73
26043;BME280;13818;52.156;5.382;2023-04-10T10:44:00;101180.31;;;14.70;94.96
26043;BME280;13818;52.156;5.382;2023-04-10T10:46:35;101175.13;;;14.67;94.48
26043;BME280;13818;52.156;5.382;2023-04-10T10:49:05;101177.31;;;14.91;94.68
26043;BME280;13818;52.156;5.382;2023-04-10T10:51:44;101174.28;;;14.97;92.71
26043;BME280;13818;52.156;5.382;2023-04-10T10:54:29;101175.94;;;14.84;92.96
26043;BME280;13818;52.156;5.382;2023-04-10T10:56:56;101170.31;;;14.88;94.02
26043;BME280;13818;52.156;5.382;2023-04-10T10:59:53;101163.44;;;14.99;93.85
26043;BME280;13818;52.156;5.382;2023-04-10T11:02:22;101139.97;;;15.17;93.22
26043;BME280;13818;52.156;5.382;2023-04-10T11:04:50;101152.28;;;15.35;92.81
26043;BME280;13818;52.156;5.382;2023-04-10T11:07:17;101143.28;;;15.65;91.73
26043;BME280;13818;52.156;5.382;2023-04-10T11:09:52;101133.78;;;15.74;89.90
26043;BME280;13818;52.156;5.382;2023-04-10T11:12:22;101129.59;;;15.70;90.45
26043;BME280;13818;52.156;5.382;2023-04-10T11:14:57;101115.28;;;15.55;89.59
26043;BME280;13818;52.156;5.382;2023-04-10T11:17:47;101117.59;;;15.61;89.88
26043;BME280;13818;52.156;5.382;2023-04-10T11:20:16;101110.28;;;15.92;89.28
26043;BME280;13818;52.156;5.382;2023-04-10T11:23:06;101108.88;;;16.14;87.54
26043;BME280;13818;52.156;5.382;2023-04-10T11:26:00;101096.34;;;16.27;86.77
26043;BME280;13818;52.156;5.382;2023-04-10T11:28:35;101104.09;;;16.19;86.79
26043;BME280;13818;52.156;5.382;2023-04-10T11:31:15;101105.03;;;16.18;86.74
26043;BME280;13818;52.156;5.382;2023-04-10T11:33:44;101104.72;;;15.95;86.91
26043;BME280;13818;52.156;5.382;2023-04-10T11:36:14;101092.84;;;15.85;88.38
26043;BME280;13818;52.156;5.382;2023-04-10T11:38:53;101088.25;;;16.00;88.20
26043;BME280;13818;52.156;5.382;2023-04-10T11:41:22;101084.06;;;15.96;89.26
26043;BME280;13818;52.156;5.382;2023-04-10T11:43:52;101074.03;;;16.12;89.13
26043;BME280;13818;52.156;5.382;2023-04-10T11:46:19;101058.84;;;16.11;89.10
26043;BME280;13818;52.156;5.382;2023-04-10T11:48:45;101062.72;;;16.07;89.07
26043;BME280;13818;52.156;5.382;2023-04-10T11:51:15;101062.44;;;15.97;89.42
26043;BME280;13818;52.156;5.382;2023-04-10T11:53:42;101064.31;;;16.24;88.98
26043;BME280;13818;52.156;5.382;2023-04-10T11:56:15;101061.94;;;16.05;89.44
26043;BME280;13818;52.156;5.382;2023-04-10T11:58:42;101041.16;;;16.21;89.05
26043;BME280;13818;52.156;5.382;2023-04-10T12:01:11;101046.97;;;16.28;89.37
26043;BME280;13818;52.156;5.382;2023-04-10T12:03:40;101042.50;;;16.41;89.71
26043;BME280;13818;52.156;5.382;2023-04-10T12:06:10;101034.78;;;16.63;88.97
26043;BME280;13818;52.156;5.382;2023-04-10T12:08:39;101022.81;;;16.54;88.65
26043;BME280;13818;52.156;5.382;2023-04-10T12:11:08;101018.50;;;16.51;89.05
26043;BME280;13818;52.156;5.382;2023-04-10T12:13:36;101023.19;;;16.75;88.04
26043;BME280;13818;52.156;5.382;2023-04-10T12:16:05;101021.97;;;16.79;87.96
26043;BME280;13818;52.156;5.382;2023-04-10T12:18:32;101023.94;;;16.77;87.43
26043;BME280;13818;52.156;5.382;2023-04-10T12:21:00;101008.88;;;17.00;87.30
26043;BME280;13818;52.156;5.382;2023-04-10T12:23:28;101000.16;;;16.97;87.57
26043;BME280;13818;52.156;5.382;2023-04-10T12:26:12;100996.06;;;17.04;86.27
26043;BME280;13818;52.156;5.382;2023-04-10T12:28:40;100992.72;;;17.00;85.93
26043;BME280;13818;52.156;5.382;2023-04-10T12:31:08;101000.88;;;17.24;85.79
26043;BME280;13818;52.156;5.382;2023-04-10T12:33:34;100986.88;;;17.32;86.08
26043;BME280;13818;52.156;5.382;2023-04-10T12:36:02;100991.97;;;17.11;84.18
26043;BME280;13818;52.156;5.382;2023-04-10T12:38:37;100974.94;;;17.11;84.73
26043;BME280;13818;52.156;5.382;2023-04-10T12:41:04;100972.16;;;17.12;85.00
26043;BME280;13818;52.156;5.382;2023-04-10T12:43:35;100969.88;;;17.19;85.39
26043;BME280;13818;52.156;5.382;2023-04-10T12:46:03;100956.19;;;17.22;84.27
26043;BME280;13818;52.156;5.382;2023-04-10T12:48:30;100938.25;;;16.97;84.13
26043;BME280;13818;52.156;5.382;2023-04-10T12:50:57;100950.72;;;16.85;85.39
26043;BME280;13818;52.156;5.382;2023-04-10T12:53:24;100934.47;;;16.86;85.85
26043;BME280;13818;52.156;5.382;2023-04-10T12:55:57;100931.25;;;16.94;86.67
26043;BME280;13818;52.156;5.382;2023-04-10T12:58:24;100931.88;;;16.85;86.76